createdAt,value
2022-09-28T00:00:21.046Z,983.74
2022-09-28T00:01:21.140Z,983.73
2022-09-28T00:02:21.165Z,983.73
2022-09-28T00:03:20.984Z,983.72
2022-09-28T00:04:20.973Z,983.74
2022-09-28T00:05:20.953Z,983.71
2022-09-28T00:06:20.970Z,983.72
2022-09-28T00:07:20.933Z,983.75
2022-09-28T00:08:20.926Z,983.72
2022-09-28T00:09:20.908Z,983.73
2022-09-28T00:10:20.902Z,983.70
2022-09-28T00:11:20.961Z,983.67
2022-09-28T00:12:20.874Z,983.66
2022-09-28T00:13:20.860Z,983.65
2022-09-28T00:14:20.843Z,983.67
2022-09-28T00:15:20.825Z,983.64
2022-09-28T00:16:20.866Z,983.62
2022-09-28T00:17:20.804Z,983.64
2022-09-28T00:18:20.794Z,983.62
2022-09-28T00:19:20.773Z,983.65
2022-09-28T00:20:20.762Z,983.62
2022-09-28T00:21:20.763Z,983.59
2022-09-28T00:22:20.746Z,983.57
2022-09-28T00:23:20.723Z,983.58
2022-09-28T00:24:25.258Z,983.56
2022-09-28T00:25:21.697Z,983.52
2022-09-28T00:26:20.692Z,983.59
2022-09-28T00:27:20.681Z,983.53
2022-09-28T00:28:20.661Z,983.57
2022-09-28T00:29:20.640Z,983.58
2022-09-28T00:30:20.632Z,983.57
2022-09-28T00:31:20.651Z,983.57
2022-09-28T00:32:20.618Z,983.55
2022-09-28T00:33:20.592Z,983.51
2022-09-28T00:34:20.591Z,983.58
2022-09-28T00:35:20.571Z,983.58
2022-09-28T00:36:20.588Z,983.57
2022-09-28T00:37:20.541Z,983.61
2022-09-28T00:38:20.531Z,983.57
2022-09-28T00:39:20.513Z,983.58
2022-09-28T00:40:20.540Z,983.59
2022-09-28T00:41:20.492Z,983.59
2022-09-28T00:42:20.477Z,983.59
2022-09-28T00:43:20.462Z,983.54
2022-09-28T00:44:20.451Z,983.52
2022-09-28T00:45:20.430Z,983.57
2022-09-28T00:46:20.438Z,983.52
2022-09-28T00:47:20.401Z,983.55
2022-09-28T00:48:20.392Z,983.53
2022-09-28T00:49:20.381Z,983.54
2022-09-28T00:50:20.372Z,983.58
2022-09-28T00:51:20.370Z,983.61
2022-09-28T00:52:20.341Z,983.55
2022-09-28T00:53:20.333Z,983.49
2022-09-28T00:54:20.353Z,983.52
2022-09-28T00:55:20.302Z,983.54
2022-09-28T00:56:20.303Z,983.47
2022-09-28T00:57:20.270Z,983.49
2022-09-28T00:58:20.258Z,983.44
2022-09-28T00:59:20.251Z,983.46
2022-09-28T01:00:20.233Z,983.47
2022-09-28T01:01:20.261Z,983.48
2022-09-28T01:02:20.411Z,983.50
2022-09-28T01:03:20.201Z,983.50
2022-09-28T01:04:20.180Z,983.48
2022-09-28T01:05:20.168Z,983.55
2022-09-28T01:06:20.168Z,983.55
2022-09-28T01:07:20.149Z,983.57
2022-09-28T01:08:20.129Z,983.55
2022-09-28T01:09:20.118Z,983.54
2022-09-28T01:10:20.107Z,983.57
2022-09-28T01:11:20.097Z,983.53
2022-09-28T01:12:20.076Z,983.53
2022-09-28T01:13:20.087Z,983.48
2022-09-28T01:14:20.064Z,983.55
2022-09-28T01:15:20.047Z,983.51
2022-09-28T01:16:20.055Z,983.51
2022-09-28T01:17:20.021Z,983.52
2022-09-28T01:18:19.996Z,983.49
2022-09-28T01:19:19.985Z,983.49
2022-09-28T01:20:19.987Z,983.43
2022-09-28T01:21:19.967Z,983.42
2022-09-28T01:22:19.956Z,983.38
2022-09-28T01:23:19.925Z,983.41
2022-09-28T01:24:19.925Z,983.43
2022-09-28T01:25:19.927Z,983.44
2022-09-28T01:26:19.885Z,983.45
2022-09-28T01:27:19.884Z,983.41
2022-09-28T01:28:19.907Z,983.31
2022-09-28T01:29:19.854Z,983.34
2022-09-28T01:30:19.856Z,983.30
2022-09-28T01:31:19.905Z,983.32
2022-09-28T01:32:19.814Z,983.30
2022-09-28T01:33:19.805Z,983.26
2022-09-28T01:34:19.787Z,983.27
2022-09-28T01:35:19.787Z,983.24
2022-09-28T01:36:19.754Z,983.17
2022-09-28T01:37:19.753Z,983.14
2022-09-28T01:38:19.738Z,983.11
2022-09-28T01:39:19.725Z,983.10
2022-09-28T01:40:19.747Z,983.07
2022-09-28T01:41:19.695Z,983.11
2022-09-28T01:42:19.683Z,983.08
2022-09-28T01:43:19.672Z,983.02
2022-09-28T01:44:19.653Z,983.01
2022-09-28T01:45:19.664Z,983.03
2022-09-28T01:46:19.669Z,983.03
2022-09-28T01:47:19.623Z,982.97
2022-09-28T01:48:19.600Z,982.92
2022-09-28T01:49:19.595Z,982.99
2022-09-28T01:50:19.583Z,982.91
2022-09-28T01:51:19.565Z,982.92
2022-09-28T01:52:19.541Z,982.86
2022-09-28T01:53:19.534Z,982.88
2022-09-28T01:54:19.536Z,982.86
2022-09-28T01:55:19.513Z,982.79
2022-09-28T01:56:19.503Z,982.81
2022-09-28T01:57:19.481Z,982.78
2022-09-28T01:58:19.472Z,982.77
2022-09-28T01:59:19.472Z,982.82
2022-09-28T02:00:19.441Z,982.75
2022-09-28T02:01:19.481Z,982.76
2022-09-28T02:02:19.439Z,982.77
2022-09-28T02:03:19.412Z,982.76
2022-09-28T02:04:19.400Z,982.78
2022-09-28T02:05:19.387Z,982.77
2022-09-28T02:06:19.361Z,982.72
2022-09-28T02:07:19.350Z,982.69
2022-09-28T02:08:19.329Z,982.65
2022-09-28T02:09:19.345Z,982.69
2022-09-28T02:10:19.308Z,982.64
2022-09-28T02:11:19.304Z,982.68
2022-09-28T02:12:19.280Z,982.64
2022-09-28T02:13:19.272Z,982.65
2022-09-28T02:14:19.258Z,982.65
2022-09-28T02:15:19.245Z,982.62
2022-09-28T02:16:19.278Z,982.62
2022-09-28T02:17:19.216Z,982.66
2022-09-28T02:18:19.204Z,982.61
2022-09-28T02:19:19.200Z,982.63
2022-09-28T02:20:19.184Z,982.63
2022-09-28T02:21:19.172Z,982.58
2022-09-28T02:22:19.149Z,982.52
2022-09-28T02:23:19.139Z,982.54
2022-09-28T02:24:21.524Z,982.49
2022-09-28T02:25:19.106Z,982.50
2022-09-28T02:26:19.092Z,982.51
2022-09-28T02:27:19.090Z,982.54
2022-09-28T02:28:19.066Z,982.51
2022-09-28T02:29:19.150Z,982.53
2022-09-28T02:30:19.036Z,982.53
2022-09-28T02:31:19.082Z,982.49
2022-09-28T02:32:19.023Z,982.47
2022-09-28T02:33:19.006Z,982.47
2022-09-28T02:34:18.997Z,982.46
2022-09-28T02:35:18.986Z,982.48
2022-09-28T02:36:18.965Z,982.50
2022-09-28T02:37:18.947Z,982.48
2022-09-28T02:38:18.941Z,982.55
2022-09-28T02:39:19.021Z,982.56
2022-09-28T02:40:18.966Z,982.55
2022-09-28T02:41:18.930Z,982.56
2022-09-28T02:42:18.888Z,982.51
2022-09-28T02:43:18.875Z,982.55
2022-09-28T02:44:18.865Z,982.50
2022-09-28T02:45:18.847Z,982.58
2022-09-28T02:46:18.932Z,982.56
2022-09-28T02:47:18.813Z,982.55
2022-09-28T02:48:27.187Z,982.54
2022-09-28T02:49:22.022Z,982.53
2022-09-28T02:50:18.774Z,982.54
2022-09-28T02:51:18.786Z,982.51
2022-09-28T02:52:18.753Z,982.52
2022-09-28T02:53:18.744Z,982.48
2022-09-28T02:54:19.064Z,982.48
2022-09-28T02:55:18.718Z,982.51
2022-09-28T02:56:18.693Z,982.52
2022-09-28T02:57:18.692Z,982.49
2022-09-28T02:58:18.674Z,982.50
2022-09-28T02:59:18.678Z,982.51
2022-09-28T03:00:18.643Z,982.46
2022-09-28T03:01:18.691Z,982.39
2022-09-28T03:02:18.659Z,982.41
2022-09-28T03:03:18.611Z,982.39
2022-09-28T03:04:18.597Z,982.44
2022-09-28T03:05:18.572Z,982.45
2022-09-28T03:06:18.555Z,982.47
2022-09-28T03:07:18.550Z,982.45
2022-09-28T03:08:18.553Z,982.45
2022-09-28T03:09:18.648Z,982.42
2022-09-28T03:10:18.512Z,982.39
2022-09-28T03:11:18.499Z,982.40
2022-09-28T03:12:18.482Z,982.32
2022-09-28T03:13:18.471Z,982.36
2022-09-28T03:14:18.470Z,982.39
2022-09-28T03:15:18.442Z,982.32
2022-09-28T03:16:18.457Z,982.35
2022-09-28T03:17:18.410Z,982.37
2022-09-28T03:18:18.402Z,982.32
2022-09-28T03:19:18.500Z,982.29
2022-09-28T03:20:18.370Z,982.29
2022-09-28T03:21:18.360Z,982.32
2022-09-28T03:22:18.339Z,982.24
2022-09-28T03:23:25.669Z,982.26
2022-09-28T03:24:19.326Z,982.22
2022-09-28T03:25:18.298Z,982.24
2022-09-28T03:26:18.289Z,982.19
2022-09-28T03:27:18.287Z,982.24
2022-09-28T03:28:18.259Z,982.21
2022-09-28T03:29:18.403Z,982.21
2022-09-28T03:30:18.239Z,982.18
2022-09-28T03:31:18.236Z,982.19
2022-09-28T03:32:18.213Z,982.17
2022-09-28T03:33:18.199Z,982.18
2022-09-28T03:34:18.196Z,982.18
2022-09-28T03:35:18.167Z,982.21
2022-09-28T03:36:18.160Z,982.16
2022-09-28T03:37:18.158Z,982.13
2022-09-28T03:38:18.152Z,982.15
2022-09-28T03:39:18.277Z,982.15
2022-09-28T03:40:18.154Z,982.12
2022-09-28T03:41:18.093Z,982.13
2022-09-28T03:42:18.076Z,982.07
2022-09-28T03:43:18.079Z,982.00
2022-09-28T03:44:18.055Z,982.00
2022-09-28T03:45:18.039Z,981.99
2022-09-28T03:46:18.059Z,982.02
2022-09-28T03:47:18.015Z,982.01
2022-09-28T03:48:23.155Z,982.00
2022-09-28T03:49:18.983Z,981.99
2022-09-28T03:50:17.981Z,981.95
2022-09-28T03:51:17.955Z,981.99
2022-09-28T03:52:17.939Z,981.93
2022-09-28T03:53:17.944Z,981.92
2022-09-28T03:54:17.916Z,981.89
2022-09-28T03:55:17.902Z,981.86
2022-09-28T03:56:17.885Z,981.87
2022-09-28T03:57:17.875Z,981.86
2022-09-28T03:58:17.862Z,981.90
2022-09-28T03:59:17.948Z,981.87
2022-09-28T04:00:17.833Z,981.86
2022-09-28T04:01:18.275Z,981.92
2022-09-28T04:02:17.846Z,981.84
2022-09-28T04:03:17.803Z,981.81
2022-09-28T04:04:17.771Z,981.74
2022-09-28T04:05:17.765Z,981.71
2022-09-28T04:06:17.752Z,981.69
2022-09-28T04:07:17.738Z,981.71
2022-09-28T04:08:17.731Z,981.69
2022-09-28T04:09:17.812Z,981.64
2022-09-28T04:10:17.700Z,981.56
2022-09-28T04:11:17.683Z,981.53
2022-09-28T04:12:17.669Z,981.52
2022-09-28T04:13:17.664Z,981.53
2022-09-28T04:14:17.641Z,981.54
2022-09-28T04:15:17.632Z,981.56
2022-09-28T04:16:17.665Z,981.55
2022-09-28T04:17:17.600Z,981.54
2022-09-28T04:18:17.601Z,981.52
2022-09-28T04:19:17.692Z,981.51
2022-09-28T04:20:17.558Z,981.49
2022-09-28T04:21:17.553Z,981.48
2022-09-28T04:22:17.530Z,981.46
2022-09-28T04:23:17.537Z,981.39
2022-09-28T04:24:17.518Z,981.44
2022-09-28T04:25:17.502Z,981.36
2022-09-28T04:26:17.477Z,981.41
2022-09-28T04:27:17.479Z,981.37
2022-09-28T04:28:17.469Z,981.39
2022-09-28T04:29:17.631Z,981.27
2022-09-28T04:30:17.431Z,981.26
2022-09-28T04:31:17.440Z,981.28
2022-09-28T04:32:17.398Z,981.24
2022-09-28T04:33:17.400Z,981.29
2022-09-28T04:34:17.370Z,981.28
2022-09-28T04:35:17.375Z,981.26
2022-09-28T04:36:17.341Z,981.27
2022-09-28T04:37:17.339Z,981.25
2022-09-28T04:38:30.683Z,981.25
2022-09-28T04:39:18.453Z,981.22
2022-09-28T04:40:17.331Z,981.20
2022-09-28T04:41:17.288Z,981.18
2022-09-28T04:42:17.265Z,981.15
2022-09-28T04:43:17.307Z,981.15
2022-09-28T04:44:17.247Z,981.17
2022-09-28T04:45:17.229Z,981.10
2022-09-28T04:46:17.292Z,981.08
2022-09-28T04:47:17.219Z,981.11
2022-09-28T04:48:17.223Z,981.09
2022-09-28T04:49:17.320Z,981.12
2022-09-28T04:50:17.161Z,981.13
2022-09-28T04:51:17.146Z,981.10
2022-09-28T04:52:18.497Z,981.12
2022-09-28T04:53:17.446Z,981.10
2022-09-28T04:54:17.574Z,981.11
2022-09-28T04:55:17.097Z,981.10
2022-09-28T04:56:17.113Z,981.11
2022-09-28T04:57:17.064Z,981.07
2022-09-28T04:58:17.124Z,981.08
2022-09-28T04:59:17.195Z,981.09
2022-09-28T05:00:17.026Z,981.13
2022-09-28T05:01:17.119Z,981.13
2022-09-28T05:02:17.030Z,981.12
2022-09-28T05:03:17.014Z,981.11
2022-09-28T05:04:16.970Z,981.11
2022-09-28T05:05:17.173Z,981.09
2022-09-28T05:06:16.953Z,981.03
2022-09-28T05:07:16.936Z,981.06
2022-09-28T05:08:16.937Z,981.01
2022-09-28T05:09:16.967Z,980.96
2022-09-28T05:10:16.900Z,980.96
2022-09-28T05:11:16.883Z,980.94
2022-09-28T05:12:16.874Z,980.96
2022-09-28T05:13:16.862Z,980.96
2022-09-28T05:14:16.852Z,980.95
2022-09-28T05:15:16.822Z,980.91
2022-09-28T05:16:16.858Z,980.94
2022-09-28T05:17:16.802Z,980.90
2022-09-28T05:18:16.804Z,980.90
2022-09-28T05:19:16.877Z,980.90
2022-09-28T05:20:16.769Z,980.90
2022-09-28T05:21:16.749Z,980.89
2022-09-28T05:22:16.744Z,980.86
2022-09-28T05:23:16.740Z,980.84
2022-09-28T05:24:16.712Z,980.90
2022-09-28T05:25:16.700Z,980.82
2022-09-28T05:26:16.698Z,980.80
2022-09-28T05:27:16.669Z,980.81
2022-09-28T05:28:16.671Z,980.77
2022-09-28T05:29:16.775Z,980.77
2022-09-28T05:30:16.629Z,980.76
2022-09-28T05:31:16.691Z,980.77
2022-09-28T05:32:16.610Z,980.79
2022-09-28T05:33:16.603Z,980.74
2022-09-28T05:34:16.591Z,980.77
2022-09-28T05:35:16.559Z,980.73
2022-09-28T05:36:16.553Z,980.74
2022-09-28T05:37:16.532Z,980.74
2022-09-28T05:38:16.539Z,980.73
2022-09-28T05:39:16.598Z,980.70
2022-09-28T05:40:16.584Z,980.70
2022-09-28T05:41:16.491Z,980.67
2022-09-28T05:42:16.549Z,980.67
2022-09-28T05:43:16.470Z,980.64
2022-09-28T05:44:16.592Z,980.64
2022-09-28T05:45:16.436Z,980.56
2022-09-28T05:46:16.458Z,980.56
2022-09-28T05:47:16.408Z,980.59
2022-09-28T05:48:16.412Z,980.59
2022-09-28T05:49:16.377Z,980.58
2022-09-28T05:50:16.368Z,980.57
2022-09-28T05:51:16.356Z,980.58
2022-09-28T05:52:16.349Z,980.55
2022-09-28T05:53:16.336Z,980.56
2022-09-28T05:54:16.507Z,980.57
2022-09-28T05:55:16.308Z,980.58
2022-09-28T05:56:16.296Z,980.52
2022-09-28T05:57:16.280Z,980.51
2022-09-28T05:58:16.280Z,980.50
2022-09-28T05:59:16.246Z,980.51
2022-09-28T06:00:16.246Z,980.49
2022-09-28T06:01:16.276Z,980.47
2022-09-28T06:02:16.231Z,980.45
2022-09-28T06:03:16.208Z,980.42
2022-09-28T06:04:16.259Z,980.46
2022-09-28T06:05:16.174Z,980.44
2022-09-28T06:06:16.155Z,980.45
2022-09-28T06:07:16.149Z,980.46
2022-09-28T06:08:16.153Z,980.43
2022-09-28T06:09:16.115Z,980.42
2022-09-28T06:10:16.104Z,980.45
2022-09-28T06:11:16.095Z,980.42
2022-09-28T06:12:16.087Z,980.49
2022-09-28T06:13:16.092Z,980.37
2022-09-28T06:14:16.698Z,980.42
2022-09-28T06:15:16.038Z,980.40
2022-09-28T06:16:16.062Z,980.41
2022-09-28T06:17:16.026Z,980.42
2022-09-28T06:18:16.026Z,980.44
2022-09-28T06:19:16.021Z,980.45
2022-09-28T06:20:15.973Z,980.48
2022-09-28T06:21:15.956Z,980.44
2022-09-28T06:22:15.958Z,980.46
2022-09-28T06:23:15.945Z,980.45
2022-09-28T06:24:15.975Z,980.42
2022-09-28T06:25:15.906Z,980.45
2022-09-28T06:26:15.893Z,980.42
2022-09-28T06:27:15.882Z,980.47
2022-09-28T06:28:15.891Z,980.46
2022-09-28T06:29:19.310Z,980.43
2022-09-28T06:30:15.842Z,980.44
2022-09-28T06:31:15.948Z,980.40
2022-09-28T06:32:15.818Z,980.44
2022-09-28T06:33:15.823Z,980.41
2022-09-28T06:34:15.862Z,980.41
2022-09-28T06:35:15.789Z,980.46
2022-09-28T06:36:15.763Z,980.42
2022-09-28T06:37:15.753Z,980.42
2022-09-28T06:38:15.754Z,980.47
2022-09-28T06:39:15.720Z,980.47
2022-09-28T06:40:15.747Z,980.42
2022-09-28T06:41:15.694Z,980.43
2022-09-28T06:42:15.683Z,980.37
2022-09-28T06:43:15.675Z,980.38
2022-09-28T06:44:22.652Z,980.36
2022-09-28T06:45:15.639Z,980.43
2022-09-28T06:46:15.742Z,980.43
2022-09-28T06:47:15.849Z,980.41
2022-09-28T06:48:15.613Z,980.44
2022-09-28T06:49:19.290Z,980.43
2022-09-28T06:50:15.571Z,980.44
2022-09-28T06:51:15.561Z,980.43
2022-09-28T06:52:15.569Z,980.45
2022-09-28T06:53:15.540Z,980.43
2022-09-28T06:54:15.558Z,980.44
2022-09-28T06:55:15.502Z,980.42
2022-09-28T06:56:15.491Z,980.48
2022-09-28T06:57:15.478Z,980.47
2022-09-28T06:58:15.478Z,980.48
2022-09-28T06:59:15.455Z,980.41
2022-09-28T07:00:15.443Z,980.46
2022-09-28T07:01:15.517Z,980.49
2022-09-28T07:02:15.457Z,980.40
2022-09-28T07:03:15.414Z,980.48
2022-09-28T07:04:15.423Z,980.51
2022-09-28T07:05:15.369Z,980.54
2022-09-28T07:06:15.358Z,980.48
2022-09-28T07:07:15.371Z,980.52
2022-09-28T07:08:15.335Z,980.50
2022-09-28T07:09:30.800Z,980.52
2022-09-28T07:10:16.313Z,980.52
2022-09-28T07:11:15.285Z,980.50
2022-09-28T07:12:15.329Z,980.52
2022-09-28T07:13:40.790Z,980.53
2022-09-28T07:14:32.076Z,980.50
2022-09-28T07:15:16.235Z,980.46
2022-09-28T07:16:15.247Z,980.47
2022-09-28T07:17:15.479Z,980.49
2022-09-28T07:18:15.287Z,980.49
2022-09-28T07:19:15.184Z,980.47
2022-09-28T07:20:19.190Z,980.49
2022-09-28T07:21:26.136Z,980.51
2022-09-28T07:22:18.910Z,980.43
2022-09-28T07:23:19.334Z,980.46
2022-09-28T07:24:15.145Z,980.44
2022-09-28T07:25:15.105Z,980.45
2022-09-28T07:26:15.438Z,980.43
2022-09-28T07:27:15.089Z,980.50
2022-09-28T07:28:15.077Z,980.53
2022-09-28T07:29:15.059Z,980.51
2022-09-28T07:30:15.049Z,980.51
2022-09-28T07:31:15.075Z,980.50
2022-09-28T07:32:15.042Z,980.48
2022-09-28T07:33:14.996Z,980.54
2022-09-28T07:34:15.053Z,980.56
2022-09-28T07:35:14.976Z,980.51
2022-09-28T07:36:14.956Z,980.49
2022-09-28T07:37:14.955Z,980.46
2022-09-28T07:38:14.933Z,980.52
2022-09-28T07:39:14.925Z,980.53
2022-09-28T07:40:14.932Z,980.48
2022-09-28T07:41:14.893Z,980.55
2022-09-28T07:42:14.896Z,980.51
2022-09-28T07:43:14.856Z,980.47
2022-09-28T07:44:14.917Z,980.53
2022-09-28T07:45:14.842Z,980.53
2022-09-28T07:46:24.856Z,980.52
2022-09-28T07:47:14.811Z,980.52
2022-09-28T07:48:14.795Z,980.51
2022-09-28T07:49:14.821Z,980.52
2022-09-28T07:50:14.770Z,980.52
2022-09-28T07:51:14.769Z,980.50
2022-09-28T07:52:14.760Z,980.52
2022-09-28T07:53:14.720Z,980.53
2022-09-28T07:54:14.711Z,980.54
2022-09-28T07:55:14.699Z,980.52
2022-09-28T07:56:14.692Z,980.54
2022-09-28T07:57:14.741Z,980.53
2022-09-28T07:58:14.658Z,980.55
2022-09-28T07:59:14.729Z,980.56
2022-09-28T08:00:14.645Z,980.52
2022-09-28T08:01:14.742Z,980.62
2022-09-28T08:02:14.749Z,980.60
2022-09-28T08:03:14.590Z,980.58
2022-09-28T08:04:14.588Z,980.60
2022-09-28T08:05:14.574Z,980.59
2022-09-28T08:06:14.557Z,980.61
2022-09-28T08:07:14.557Z,980.55
2022-09-28T08:08:14.527Z,980.54
2022-09-28T08:09:14.592Z,980.58
2022-09-28T08:10:14.515Z,980.58
2022-09-28T08:11:14.506Z,980.65
2022-09-28T08:12:14.497Z,980.59
2022-09-28T08:13:14.460Z,980.63
2022-09-28T08:14:14.514Z,980.64
2022-09-28T08:15:14.476Z,980.62
2022-09-28T08:16:14.574Z,980.67
2022-09-28T08:17:14.407Z,980.61
2022-09-28T08:18:14.402Z,980.64
2022-09-28T08:19:14.388Z,980.63
2022-09-28T08:20:14.369Z,980.59
2022-09-28T08:21:14.376Z,980.64
2022-09-28T08:22:14.346Z,980.62
2022-09-28T08:23:14.327Z,980.65
2022-09-28T08:24:14.375Z,980.64
2022-09-28T08:25:14.318Z,980.66
2022-09-28T08:26:15.687Z,980.62
2022-09-28T08:27:14.298Z,980.68
2022-09-28T08:28:14.265Z,980.59
2022-09-28T08:29:14.246Z,980.59
2022-09-28T08:30:14.247Z,980.60
2022-09-28T08:31:14.308Z,980.63
2022-09-28T08:32:14.218Z,980.62
2022-09-28T08:33:14.196Z,980.63
2022-09-28T08:34:14.230Z,980.60
2022-09-28T08:35:14.182Z,980.66
2022-09-28T08:36:14.164Z,980.65
2022-09-28T08:37:14.144Z,980.65
2022-09-28T08:38:14.126Z,980.66
2022-09-28T08:39:14.106Z,980.62
2022-09-28T08:40:14.099Z,980.66
2022-09-28T08:41:14.095Z,980.65
2022-09-28T08:42:14.083Z,980.63
2022-09-28T08:43:14.055Z,980.65
2022-09-28T08:44:14.149Z,980.70
2022-09-28T08:45:14.042Z,980.69
2022-09-28T08:46:14.090Z,980.69
2022-09-28T08:47:14.003Z,980.68
2022-09-28T08:48:13.991Z,980.72
2022-09-28T08:49:30.807Z,980.66
2022-09-28T08:50:14.968Z,980.70
2022-09-28T08:51:13.964Z,980.70
2022-09-28T08:52:13.947Z,980.65
2022-09-28T08:53:13.921Z,980.66
2022-09-28T08:54:13.945Z,980.68
2022-09-28T08:55:13.921Z,980.72
2022-09-28T08:56:13.905Z,980.72
2022-09-28T08:57:13.874Z,980.73
2022-09-28T08:58:13.861Z,980.69
2022-09-28T08:59:13.862Z,980.68
2022-09-28T09:00:13.839Z,980.72
2022-09-28T09:01:13.873Z,980.69
2022-09-28T09:02:13.847Z,980.71
2022-09-28T09:03:13.790Z,980.73
2022-09-28T09:04:13.829Z,980.73
2022-09-28T09:05:13.773Z,980.68
2022-09-28T09:06:18.178Z,980.67
2022-09-28T09:07:13.730Z,980.71
2022-09-28T09:08:13.731Z,980.73
2022-09-28T09:09:13.701Z,980.69
2022-09-28T09:10:13.709Z,980.75
2022-09-28T09:11:13.680Z,980.71
2022-09-28T09:12:13.681Z,980.68
2022-09-28T09:13:13.657Z,980.69
2022-09-28T09:14:13.694Z,980.67
2022-09-28T09:15:13.640Z,980.72
2022-09-28T09:16:13.647Z,980.75
2022-09-28T09:17:13.612Z,980.67
2022-09-28T09:18:15.558Z,980.69
2022-09-28T09:19:13.580Z,980.71
2022-09-28T09:20:13.579Z,980.71
2022-09-28T09:21:13.554Z,980.72
2022-09-28T09:22:13.540Z,980.72
2022-09-28T09:23:13.530Z,980.71
2022-09-28T09:24:13.562Z,980.74
2022-09-28T09:25:13.510Z,980.79
2022-09-28T09:26:16.041Z,980.73
2022-09-28T09:27:13.470Z,980.77
2022-09-28T09:28:13.451Z,980.78
2022-09-28T09:29:13.438Z,980.75
2022-09-28T09:30:14.734Z,980.74
2022-09-28T09:31:13.472Z,980.74
2022-09-28T09:32:13.400Z,980.77
2022-09-28T09:33:13.396Z,980.72
2022-09-28T09:34:13.369Z,980.79
2022-09-28T09:35:13.373Z,980.79
2022-09-28T09:36:13.345Z,980.79
2022-09-28T09:37:13.341Z,980.73
2022-09-28T09:38:13.317Z,980.72
2022-09-28T09:39:13.314Z,980.75
2022-09-28T09:40:13.304Z,980.75
2022-09-28T09:42:13.265Z,980.74
2022-09-28T09:43:13.267Z,980.70
2022-09-28T09:44:13.276Z,980.71
2022-09-28T09:45:13.244Z,980.70
2022-09-28T09:46:13.272Z,980.73
2022-09-28T09:47:13.205Z,980.70
2022-09-28T09:48:13.185Z,980.70
2022-09-28T09:49:13.179Z,980.70
2022-09-28T09:50:13.166Z,980.68
2022-09-28T09:51:13.145Z,980.73
2022-09-28T09:52:13.167Z,980.76
2022-09-28T09:53:13.126Z,980.77
2022-09-28T09:54:13.107Z,980.71
2022-09-28T09:55:13.104Z,980.75
2022-09-28T09:56:13.076Z,980.78
2022-09-28T09:57:13.079Z,980.81
2022-09-28T09:58:13.053Z,980.83
2022-09-28T09:59:13.055Z,980.78
2022-09-28T10:00:13.025Z,980.78
2022-09-28T10:01:13.138Z,980.76
2022-09-28T10:02:13.050Z,980.75
2022-09-28T10:03:12.983Z,980.78
2022-09-28T10:04:12.985Z,980.79
2022-09-28T10:05:12.962Z,980.74
2022-09-28T10:06:12.942Z,980.77
2022-09-28T10:07:12.934Z,980.74
2022-09-28T10:08:12.922Z,980.74
2022-09-28T10:09:12.928Z,980.78
2022-09-28T10:10:12.894Z,980.76
2022-09-28T10:11:12.900Z,980.77
2022-09-28T10:12:12.866Z,980.83
2022-09-28T10:13:12.852Z,980.79
2022-09-28T10:14:12.855Z,980.79
2022-09-28T10:15:12.833Z,980.80
2022-09-28T10:16:12.845Z,980.86
2022-09-28T10:17:12.791Z,980.89
2022-09-28T10:18:12.782Z,980.84
2022-09-28T10:19:12.784Z,980.89
2022-09-28T10:20:12.751Z,980.86
2022-09-28T10:21:12.757Z,980.92
2022-09-28T10:22:12.736Z,980.97
2022-09-28T10:23:12.755Z,981.01
2022-09-28T10:24:12.702Z,981.02
2022-09-28T10:25:12.693Z,981.01
2022-09-28T10:26:12.682Z,981.00
2022-09-28T10:27:12.669Z,981.05
2022-09-28T10:28:12.670Z,981.01
2022-09-28T10:29:12.643Z,981.06
2022-09-28T10:30:12.633Z,981.04
2022-09-28T10:31:12.640Z,981.09
2022-09-28T10:32:12.591Z,981.03
2022-09-28T10:33:12.600Z,981.09
2022-09-28T10:34:12.570Z,981.10
2022-09-28T10:35:12.561Z,981.12
2022-09-28T10:36:12.541Z,981.06
2022-09-28T10:37:12.531Z,981.04
2022-09-28T10:38:12.529Z,981.06
2022-09-28T10:39:12.510Z,981.05
2022-09-28T10:40:12.493Z,981.08
2022-09-28T10:41:12.506Z,981.11
2022-09-28T10:42:12.469Z,981.11
2022-09-28T10:43:12.474Z,981.11
2022-09-28T10:44:12.451Z,981.11
2022-09-28T10:45:12.438Z,981.07
2022-09-28T10:46:12.472Z,981.09
2022-09-28T10:47:12.414Z,981.10
2022-09-28T10:48:12.405Z,981.12
2022-09-28T10:49:12.384Z,981.10
2022-09-28T10:50:12.349Z,981.05
2022-09-28T10:51:12.356Z,981.11
2022-09-28T10:52:12.328Z,981.12
2022-09-28T10:53:12.339Z,981.12
2022-09-28T10:54:12.301Z,981.11
2022-09-28T10:55:12.297Z,981.11
2022-09-28T10:56:12.279Z,981.11
2022-09-28T10:57:13.543Z,981.11
2022-09-28T10:58:12.263Z,981.13
2022-09-28T10:59:12.242Z,981.15
2022-09-28T11:00:12.228Z,981.10
2022-09-28T11:01:12.280Z,981.14
2022-09-28T11:02:12.259Z,981.14
2022-09-28T11:03:12.198Z,981.09
2022-09-28T11:04:12.167Z,981.14
2022-09-28T11:05:12.158Z,981.16
2022-09-28T11:06:12.147Z,981.21
2022-09-28T11:07:13.323Z,981.12
2022-09-28T11:08:12.129Z,981.14
2022-09-28T11:09:12.112Z,981.18
2022-09-28T11:10:12.092Z,981.15
2022-09-28T11:11:12.077Z,981.14
2022-09-28T11:12:12.068Z,981.07
2022-09-28T11:13:12.060Z,981.08
2022-09-28T11:14:12.041Z,981.12
2022-09-28T11:15:12.037Z,981.10
2022-09-28T11:16:12.089Z,981.05
2022-09-28T11:17:11.997Z,981.07
2022-09-28T11:18:12.007Z,981.08
2022-09-28T11:19:11.981Z,981.08
2022-09-28T11:20:11.957Z,981.08
2022-09-28T11:21:13.202Z,981.11
2022-09-28T11:22:13.895Z,981.17
2022-09-28T11:23:11.935Z,981.10
2022-09-28T11:24:15.500Z,981.19
2022-09-28T11:25:12.999Z,981.16
2022-09-28T11:26:14.851Z,981.16
2022-09-28T11:27:12.868Z,981.13
2022-09-28T11:28:11.855Z,981.12
2022-09-28T11:29:11.895Z,981.16
2022-09-28T11:30:11.819Z,981.19
2022-09-28T11:31:11.893Z,981.18
2022-09-28T11:32:15.723Z,981.19
2022-09-28T11:33:11.794Z,981.15
2022-09-28T11:34:11.764Z,981.18
2022-09-28T11:35:11.760Z,981.27
2022-09-28T11:36:11.746Z,981.19
2022-09-28T11:37:11.744Z,981.21
2022-09-28T11:38:11.719Z,981.22
2022-09-28T11:39:11.707Z,981.22
2022-09-28T11:40:11.688Z,981.18
2022-09-28T11:41:11.677Z,981.23
2022-09-28T11:42:16.095Z,981.25
2022-09-28T11:43:13.353Z,981.31
2022-09-28T11:44:11.688Z,981.28
2022-09-28T11:45:11.634Z,981.25
2022-09-28T11:46:11.721Z,981.24
2022-09-28T11:47:11.616Z,981.28
2022-09-28T11:48:11.575Z,981.28
2022-09-28T11:49:11.569Z,981.28
2022-09-28T11:50:11.557Z,981.22
2022-09-28T11:51:11.544Z,981.29
2022-09-28T11:52:11.536Z,981.30
2022-09-28T11:53:11.525Z,981.35
2022-09-28T11:54:11.564Z,981.33
2022-09-28T11:55:11.495Z,981.32
2022-09-28T11:56:11.472Z,981.36
2022-09-28T11:57:11.473Z,981.36
2022-09-28T11:58:11.446Z,981.46
2022-09-28T11:59:11.434Z,981.43
2022-09-28T12:00:11.425Z,981.48
2022-09-28T12:01:14.296Z,981.49
2022-09-28T12:02:12.550Z,981.51
2022-09-28T12:03:11.460Z,981.47
2022-09-28T12:04:11.432Z,981.49
2022-09-28T12:05:11.371Z,981.48
2022-09-28T12:06:12.083Z,981.51
2022-09-28T12:07:11.335Z,981.46
2022-09-28T12:08:11.317Z,981.49
2022-09-28T12:09:11.348Z,981.51
2022-09-28T12:10:11.286Z,981.57
2022-09-28T12:11:11.278Z,981.60
2022-09-28T12:12:11.263Z,981.59
2022-09-28T12:13:11.254Z,981.57
2022-09-28T12:14:11.234Z,981.63
2022-09-28T12:15:11.226Z,981.60
2022-09-28T12:16:38.763Z,981.60
2022-09-28T12:17:15.371Z,981.61
2022-09-28T12:18:12.231Z,981.62
2022-09-28T12:19:11.198Z,981.62
2022-09-28T12:20:11.153Z,981.62
2022-09-28T12:21:11.146Z,981.60
2022-09-28T12:22:11.137Z,981.60
2022-09-28T12:23:11.117Z,981.61
2022-09-28T12:24:11.118Z,981.58
2022-09-28T12:25:11.092Z,981.59
2022-09-28T12:26:11.062Z,981.60
2022-09-28T12:27:11.092Z,981.63
2022-09-28T12:28:11.042Z,981.64
2022-09-28T12:29:11.071Z,981.71